Time;durP1;ratioP1;P1;durP2;ratioP2;P2;SDS_P1;SDS_P2;PMS_P1;PMS_P2;Temp;Humidity;BMP_temperature;BMP_pressure;BME280_temperature;BME280_humidity;BME280_pressure;Samples;Min_cycle;Max_cycle;Signal;HPM_P1;HPM_P2
2021/07/05 00:01:54;;;;;;;8.73;7.83;;;15.60;98.90;;;;;;5074809;28;20170;-90
2021/07/05 00:04:20;;;;;;;7.17;6.67;;;15.60;98.70;;;;;;5056589;28;20225;-91
2021/07/05 00:06:46;;;;;;;8.27;7.50;;;15.60;98.80;;;;;;5057003;28;20217;-91
2021/07/05 00:09:11;;;;;;;8.47;7.77;;;15.60;98.70;;;;;;5074508;28;20429;-90
2021/07/05 00:11:37;;;;;;;7.90;7.47;;;15.50;98.70;;;;;;5057138;28;20174;-90
2021/07/05 00:14:03;;;;;;;8.80;8.00;;;14.30;99.50;;;;;;5056436;28;20237;-91
2021/07/05 00:16:29;;;;;;;9.43;7.60;;;15.40;99.30;;;;;;5055955;28;20230;-90
2021/07/05 00:18:55;;;;;;;7.10;6.70;;;15.30;99.70;;;;;;5058391;28;20182;-90
2021/07/05 00:21:20;;;;;;;7.23;6.70;;;15.20;99.90;;;;;;5059029;28;20416;-91
2021/07/05 00:23:49;;;;;;;6.63;6.17;;;15.40;99.90;;;;;;5078441;28;20193;-91
2021/07/05 00:26:15;;;;;;;7.03;6.70;;;15.30;99.90;;;;;;5058787;28;20610;-91
2021/07/05 00:28:40;;;;;;;6.97;6.50;;;15.30;99.90;;;;;;5056743;28;20413;-90
2021/07/05 00:31:09;;;;;;;6.70;6.30;;;15.20;99.90;;;;;;5074342;28;20170;-91
2021/07/05 00:33:36;;;;;;;6.47;5.97;;;15.20;99.90;;;;;;5056477;28;20166;-90
2021/07/05 00:36:02;;;;;;;6.77;6.33;;;15.20;99.90;;;;;;5056422;28;20924;-90
2021/07/05 00:38:28;;;;;;;6.70;6.30;;;13.40;99.60;;;;;;5055784;28;20820;-89
2021/07/05 00:40:53;;;;;;;7.37;6.63;;;15.20;99.90;;;;;;5056906;28;20484;-90
2021/07/05 00:43:19;;;;;;;6.40;6.00;;;15.30;99.90;;;;;;5057221;28;20214;-90
2021/07/05 00:45:45;;;;;;;6.03;5.63;;;15.40;99.90;;;;;;5061606;28;20209;-89
2021/07/05 00:48:11;;;;;;;7.00;6.60;;;;;;;;;;5058114;28;20760;-90
2021/07/05 00:50:36;;;;;;;6.83;6.20;;;15.30;98.80;;;;;;5057430;28;20174;-90
2021/07/05 00:53:03;;;;;;;7.83;5.50;;;15.20;99.90;;;;;;5056414;28;20752;-90
2021/07/05 00:55:32;;;;;;;6.67;5.97;;;15.40;99.90;;;;;;5057028;28;20166;-89
2021/07/05 00:57:58;;;;;;;5.77;5.53;;;15.40;99.80;;;;;;5056919;28;20421;-90
2021/07/05 01:00:26;;;;;;;5.47;5.27;;;15.40;99.60;;;;;;5057419;28;20511;-91
2021/07/05 01:02:52;;;;;;;5.00;4.60;;;15.40;99.50;;;;;;5057318;28;20409;-89
2021/07/05 01:05:19;;;;;;;6.10;5.50;;;13.70;98.80;;;;;;5056362;28;20452;-90
2021/07/05 01:07:46;;;;;;;5.33;5.03;;;15.40;99.40;;;;;;5057122;28;20421;-90
2021/07/05 01:10:14;;;;;;;5.30;4.87;;;15.40;99.20;;;;;;5056099;28;20444;-90
2021/07/05 01:12:40;;;;;;;4.70;4.50;;;15.30;99.20;;;;;;5074087;28;20441;-91
2021/07/05 01:15:08;;;;;;;5.13;4.83;;;17.90;99.90;;;;;;5055708;28;20435;-90
2021/07/05 01:17:33;;;;;;;5.43;5.23;;;15.30;99.80;;;;;;5057013;28;20421;-90
2021/07/05 01:19:59;;;;;;;4.77;4.57;;;15.40;99.60;;;;;;5056274;28;20424;-90
2021/07/05 01:22:25;;;;;;;5.90;5.60;;;15.30;99.30;;;;;;5056402;28;20205;-90
2021/07/05 01:24:51;;;;;;;5.33;5.03;;;14.60;99.90;;;;;;5076747;28;20210;-91
2021/07/05 01:27:17;;;;;;;4.87;4.77;;;15.30;99.90;;;;;;5056157;28;20220;-91
2021/07/05 01:29:44;;;;;;;5.47;4.80;;;15.30;99.90;;;;;;5058761;28;20416;-91
2021/07/05 01:32:11;;;;;;;4.70;4.43;;;15.10;99.90;;;;;;5080027;28;20888;-91
2021/07/05 01:34:37;;;;;;;4.70;4.50;;;15.30;99.90;;;;;;5060070;28;20471;-91
2021/07/05 01:37:05;;;;;;;4.80;4.60;;;15.30;99.60;;;;;;5060904;28;20427;-91
2021/07/05 01:39:31;;;;;;;4.23;4.10;;;15.30;99.80;;;;;;5059709;28;20427;-90
2021/07/05 01:41:56;;;;;;;3.80;3.70;;;15.30;99.50;;;;;;5059887;28;20885;-91
2021/07/05 01:44:22;;;;;;;5.33;5.00;;;15.30;99.70;;;;;;5061060;28;20421;-91
2021/07/05 01:46:48;;;;;;;3.90;3.70;;;15.40;99.70;;;;;;5059154;28;20214;-91
2021/07/05 01:49:14;;;;;;;4.10;3.93;;;15.40;99.70;;;;;;5059066;28;20175;-91
2021/07/05 01:51:39;;;;;;;4.50;4.07;;;15.40;99.40;;;;;;5059263;28;20646;-91
2021/07/05 01:54:06;;;;;;;4.57;4.17;;;15.40;99.50;;;;;;5079139;28;20404;-91
2021/07/05 01:56:32;;;;;;;3.97;3.80;;;13.40;98.60;;;;;;5065338;28;20256;-91
2021/07/05 01:58:57;;;;;;;4.00;3.80;;;15.30;99.60;;;;;;5063362;28;20924;-91
2021/07/05 02:01:23;;;;;;;4.47;4.10;;;15.30;99.50;;;;;;5081229;28;20166;-91
2021/07/05 02:03:49;;;;;;;3.87;3.57;;;15.40;99.40;;;;;;5079428;28;20435;-91
2021/07/05 02:06:16;;;;;;;3.73;3.70;;;15.30;99.70;;;;;;5079633;28;20198;-91
2021/07/05 02:08:42;;;;;;;3.60;3.50;;;15.50;99.80;;;;;;5065501;28;20162;-91
2021/07/05 02:11:08;;;;;;;2.93;2.83;;;;;;;;;;5065589;28;20420;-90
2021/07/05 02:13:36;;;;;;;3.30;3.20;;;15.60;99.20;;;;;;5063587;28;20175;-91
2021/07/05 02:16:04;;;;;;;3.30;3.10;;;15.70;99.90;;;;;;5064269;28;20472;-90
2021/07/05 02:18:30;;;;;;;5.87;3.60;;;15.80;99.90;;;;;;5066956;28;20409;-91
2021/07/05 02:21:01;;;;;;;3.20;3.10;;;16.00;99.70;;;;;;5066111;28;20457;-91
2021/07/05 02:23:27;;;;;;;3.30;3.10;;;16.10;99.40;;;;;;5061575;28;20445;-91
2021/07/05 02:25:53;;;;;;;3.63;3.50;;;15.90;99.00;;;;;;5064185;28;20475;-90
2021/07/05 02:28:24;;;;;;;3.27;3.27;;;16.10;98.80;;;;;;5061931;28;20451;-91
2021/07/05 02:30:50;;;;;;;3.10;2.90;;;16.20;98.40;;;;;;5065166;28;20828;-91
2021/07/05 02:33:18;;;;;;;2.40;2.40;;;16.20;98.20;;;;;;5063496;28;20425;-91
2021/07/05 02:35:44;;;;;;;2.47;2.37;;;16.30;97.80;;;;;;5061478;28;20419;-90
2021/07/05 02:38:11;;;;;;;3.57;3.33;;;16.30;97.20;;;;;;5077876;28;20409;-91
2021/07/05 02:40:41;;;;;;;2.50;2.50;;;16.50;97.10;;;;;;5078657;28;20424;-92
2021/07/05 02:43:07;;;;;;;3.80;3.00;;;17.30;97.90;;;;;;5063014;28;20448;-91
2021/07/05 02:45:35;;;;;;;2.87;2.60;;;16.30;96.80;;;;;;5062337;28;20571;-91
2021/07/05 02:48:07;;;;;;;3.20;3.00;;;16.40;97.10;;;;;;5063643;28;20484;-91
2021/07/05 02:50:32;;;;;;;2.57;2.53;;;16.90;97.00;;;;;;5085810;28;20417;-91
2021/07/05 02:52:59;;;;;;;3.50;2.53;;;16.50;96.90;;;;;;5068132;28;20485;-91
2021/07/05 02:55:25;;;;;;;3.00;2.90;;;16.60;96.50;;;;;;5066481;28;20417;-91
2021/07/05 02:57:50;;;;;;;2.40;2.30;;;16.60;96.20;;;;;;5064753;28;20470;-89
2021/07/05 03:00:26;;;;;;;2.23;2.23;;;16.60;95.60;;;;;;5093535;28;20178;-89
2021/07/05 03:02:52;;;;;;;3.27;3.07;;;17.50;95.30;;;;;;5070672;28;20166;-91
2021/07/05 03:05:20;;;;;;;2.83;2.83;;;16.70;95.70;;;;;;5083676;28;20451;-91
2021/07/05 03:07:46;;;;;;;2.40;2.40;;;16.70;95.70;;;;;;5064290;28;20448;-91
2021/07/05 03:10:14;;;;;;;2.60;2.50;;;16.80;95.60;;;;;;5064207;28;20416;-91
2021/07/05 03:12:44;;;;;;;3.43;3.00;;;16.70;95.70;;;;;;5064765;28;20179;-92
2021/07/05 03:15:12;;;;;;;12.70;5.27;;;16.70;95.70;;;;;;5063965;28;20744;-92
2021/07/05 03:17:39;;;;;;;2.97;2.73;;;16.80;95.50;;;;;;5080619;28;20413;-90
2021/07/05 03:20:10;;;;;;;2.60;2.50;;;16.80;95.40;;;;;;5086422;28;20409;-91
2021/07/05 03:22:36;;;;;;;2.90;2.80;;;16.90;95.10;;;;;;5066105;28;20413;-91
2021/07/05 03:25:04;;;;;;;3.10;2.90;;;16.80;95.10;;;;;;5064528;28;20468;-90
2021/07/05 03:27:30;;;;;;;2.90;2.80;;;16.90;95.00;;;;;;5063171;28;20428;-90
2021/07/05 03:29:56;;;;;;;10.83;2.90;;;16.90;95.00;;;;;;5067339;28;20416;-89
2021/07/05 03:32:22;;;;;;;5.07;2.20;;;16.90;94.90;;;;;;5063825;28;20262;-91
2021/07/05 03:34:48;;;;;;;2.70;2.70;;;16.90;94.70;;;;;;5064372;28;20448;-91
2021/07/05 03:37:14;;;;;;;3.47;2.20;;;19.30;96.80;;;;;;5069160;28;20492;-89
2021/07/05 03:39:39;;;;;;;2.50;2.30;;;17.20;94.30;;;;;;5069215;28;20978;-91
2021/07/05 03:42:05;;;;;;;3.13;2.97;;;17.00;93.80;;;;;;5067828;28;20170;-91
2021/07/05 03:44:31;;;;;;;2.80;2.77;;;17.30;94.00;;;;;;5086028;28;20630;-90
2021/07/05 03:46:57;;;;;;;2.80;2.67;;;;;;;;;;5069487;28;20448;-90
2021/07/05 03:49:23;;;;;;;3.37;2.67;;;17.50;92.50;;;;;;5069100;28;20472;-90
2021/07/05 03:51:49;;;;;;;2.83;2.73;;;17.40;92.90;;;;;;5067765;28;20409;-90
2021/07/05 03:54:15;;;;;;;2.40;2.30;;;17.40;93.20;;;;;;5063013;28;20482;-90
2021/07/05 03:56:41;;;;;;;3.20;2.73;;;17.40;93.20;;;;;;5066815;28;20416;-90
2021/07/05 03:59:10;;;;;;;2.30;2.30;;;17.40;93.30;;;;;;5066598;28;20631;-88
2021/07/05 04:01:35;;;;;;;2.47;2.30;;;17.50;92.60;;;;;;5067049;28;20420;-91
2021/07/05 04:04:04;;;;;;;2.70;2.60;;;17.50;92.90;;;;;;5065531;28;20434;-92
2021/07/05 04:06:30;;;;;;;2.53;2.53;;;18.80;93.70;;;;;;5091769;28;20202;-92
2021/07/05 04:09:00;;;;;;;2.30;2.30;;;16.90;93.10;;;;;;5091543;28;20413;-91
2021/07/05 04:11:26;;;;;;;2.90;2.80;;;17.50;92.90;;;;;;5052051;28;20428;-90
2021/07/05 04:13:52;;;;;;;2.70;2.50;;;17.60;92.80;;;;;;5066051;28;20919;-89
2021/07/05 04:16:18;;;;;;;3.13;3.03;;;;;;;;;;5068772;28;20472;-90
2021/07/05 04:18:43;;;;;;;5.33;3.27;;;17.70;92.60;;;;;;5087739;28;20216;-90
2021/07/05 04:21:09;;;;;;;4.00;2.33;;;18.30;93.00;;;;;;5087027;28;20417;-91
2021/07/05 04:23:35;;;;;;;2.63;2.43;;;17.60;92.90;;;;;;5067994;28;20170;-91
2021/07/05 04:26:02;;;;;;;3.30;3.00;;;17.60;93.30;;;;;;5070169;28;20460;-91
2021/07/05 04:28:31;;;;;;;3.30;3.30;;;17.60;93.60;;;;;;5072114;28;20179;-91
2021/07/05 04:30:57;;;;;;;4.53;4.10;;;17.40;94.20;;;;;;5071381;28;20427;-90
2021/07/05 04:33:24;;;;;;;4.63;4.30;;;17.20;95.60;;;;;;5058748;28;20449;-91
2021/07/05 04:35:50;;;;;;;4.70;4.40;;;20.10;99.80;;;;;;5059429;28;20166;-88
2021/07/05 04:38:15;;;;;;;4.20;3.60;;;16.90;98.80;;;;;;5060068;28;20470;-90
2021/07/05 04:40:47;;;;;;;4.47;4.07;;;16.60;99.70;;;;;;5058988;28;20177;-90
2021/07/05 04:43:12;;;;;;;3.87;3.77;;;16.20;99.90;;;;;;5057623;28;20175;-89
2021/07/05 04:45:38;;;;;;;4.70;4.50;;;16.20;99.90;;;;;;5057280;28;20517;-89
2021/07/05 04:48:06;;;;;;;4.50;3.80;;;17.30;99.90;;;;;;5060018;28;20645;-89
2021/07/05 04:50:32;;;;;;;4.17;3.87;;;16.10;99.90;;;;;;5057127;28;20431;-89
2021/07/05 04:52:59;;;;;;;3.50;3.20;;;15.80;99.90;;;;;;5056933;28;20413;-88
2021/07/05 04:55:25;;;;;;;4.80;4.70;;;13.90;99.90;;;;;;5058435;28;20417;-89
2021/07/05 04:57:53;;;;;;;5.10;4.90;;;15.60;99.90;;;;;;5057855;28;20503;-88
2021/07/05 05:00:24;;;;;;;5.20;4.87;;;15.00;99.90;;;;;;5057424;28;20447;-89
2021/07/05 05:02:50;;;;;;;7.17;6.87;;;14.80;99.90;;;;;;5057471;28;20551;-89
2021/07/05 05:05:20;;;;;;;5.07;4.87;;;15.30;99.90;;;;;;5077878;28;20558;-87
2021/07/05 05:07:46;;;;;;;7.63;7.17;;;15.60;99.90;;;;;;5060922;28;20424;-89
2021/07/05 05:10:14;;;;;;;7.93;7.40;;;15.50;99.90;;;;;;5079182;28;20397;-88
2021/07/05 05:12:40;;;;;;;5.20;5.00;;;15.40;99.90;;;;;;5078900;28;20499;-88
2021/07/05 05:15:08;;;;;;;6.23;5.83;;;15.30;99.90;;;;;;5078440;28;20435;-89
2021/07/05 05:17:34;;;;;;;5.57;5.03;;;15.30;99.90;;;;;;5062634;28;20512;-88
2021/07/05 05:20:00;;;;;;;5.83;5.53;;;15.80;99.90;;;;;;5064540;28;20939;-87
2021/07/05 05:22:26;;;;;;;5.40;5.27;;;15.30;99.90;;;;;;5080824;28;20899;-88
2021/07/05 05:24:52;;;;;;;5.52;5.30;;;15.10;99.90;;;;;;4710819;28;10001011;-87
2021/07/05 05:27:18;;;;;;;7.17;6.53;;;15.20;99.90;;;;;;5046513;28;20547;-89
2021/07/05 05:29:44;;;;;;;4.90;4.60;;;;;;;;;;5068276;28;20406;-87
2021/07/05 05:32:10;;;;;;;6.43;5.97;;;15.20;99.90;;;;;;5047394;28;20179;-87
2021/07/05 05:34:36;;;;;;;5.20;4.90;;;15.10;99.90;;;;;;5047105;28;20467;-88
2021/07/05 05:37:02;;;;;;;6.17;5.83;;;15.90;99.90;;;;;;5063847;28;20418;-88
2021/07/05 05:39:28;;;;;;;5.60;5.23;;;15.20;99.90;;;;;;5064046;28;20179;-87
2021/07/05 05:41:54;;;;;;;6.67;6.27;;;;;;;;;;5049693;28;20426;-89
2021/07/05 05:44:21;;;;;;;7.50;7.00;;;15.10;99.90;;;;;;5055412;28;20171;-87
2021/07/05 05:46:47;;;;;;;6.30;5.90;;;15.20;99.90;;;;;;5056193;28;20465;-88
2021/07/05 05:49:17;;;;;;;6.40;5.90;;;15.20;99.90;;;;;;5075177;28;20477;-89
2021/07/05 05:51:43;;;;;;;5.87;5.43;;;15.50;99.90;;;;;;5070033;28;20266;-88
2021/07/05 05:54:10;;;;;;;4.47;4.23;;;15.30;99.90;;;;;;5050278;28;20475;-89
2021/07/05 05:56:37;;;;;;;4.93;4.50;;;15.50;99.90;;;;;;5050295;28;20167;-89
2021/07/05 05:59:06;;;;;;;5.27;4.87;;;15.30;99.40;;;;;;5050950;28;20425;-90
2021/07/05 06:01:38;;;;;;;4.60;4.30;;;15.30;99.90;;;;;;5049294;28;20441;-90
2021/07/05 06:04:08;;;;;;;6.57;5.97;;;15.30;99.90;;;;;;5048364;28;20433;-90
2021/07/05 06:06:37;;;;;;;5.70;5.20;;;15.20;99.90;;;;;;5048523;28;20480;-88
2021/07/05 06:09:03;;;;;;;5.10;4.70;;;15.20;99.90;;;;;;5051651;28;20418;-91
2021/07/05 06:11:29;;;;;;;4.70;4.50;;;15.30;99.90;;;;;;5035967;28;20426;-90
2021/07/05 06:13:55;;;;;;;4.27;4.10;;;15.30;99.30;;;;;;5039633;28;20862;-88
2021/07/05 06:16:21;;;;;;;5.43;5.00;;;;;;;;;;5040642;28;20226;-85
2021/07/05 06:18:47;;;;;;;5.27;4.87;;;15.40;98.80;;;;;;5040043;28;20210;-87
2021/07/05 06:21:15;;;;;;;6.03;5.63;;;15.40;99.90;;;;;;5058441;28;20409;-89
2021/07/05 06:23:41;;;;;;;6.50;4.97;;;15.40;99.90;;;;;;5059111;28;20163;-89
2021/07/05 06:26:09;;;;;;;3.77;3.70;;;15.50;99.90;;;;;;5058759;28;20495;-87
2021/07/05 06:28:48;;;;;;;2.87;2.87;;;19.60;99.90;;;;;;5041415;28;20418;-88
2021/07/05 06:31:15;;;;;;;3.53;3.30;;;15.50;99.60;;;;;;5058519;28;20935;-90
2021/07/05 06:33:47;;;;;;;3.33;3.13;;;15.50;98.40;;;;;;5057693;28;20496;-90
2021/07/05 06:36:14;;;;;;;2.60;2.50;;;15.40;98.70;;;;;;5079014;28;20413;-90
2021/07/05 06:38:43;;;;;;;2.70;2.50;;;15.50;99.10;;;;;;5046922;28;20447;-88
2021/07/05 06:41:09;;;;;;;2.17;2.08;;;15.50;98.80;;;;;;4698478;28;10000142;-87
2021/07/05 06:43:46;;;;;;;3.03;2.97;;;16.30;99.30;;;;;;5060668;28;20183;-87
2021/07/05 06:46:16;;;;;;;2.13;2.10;;;15.60;98.80;;;;;;5049744;28;20469;-89
2021/07/05 06:48:45;;;;;;;2.90;2.80;;;15.70;97.90;;;;;;5058116;28;20417;-86
2021/07/05 06:51:10;;;;;;;2.87;2.83;;;15.80;97.90;;;;;;5054627;28;20509;-89
2021/07/05 06:53:36;;;;;;;2.50;2.40;;;15.80;97.60;;;;;;5068169;28;20912;-89
2021/07/05 06:56:02;;;;;;;4.43;2.80;;;15.90;97.30;;;;;;5055301;28;20421;-88
2021/07/05 06:58:28;;;;;;;2.67;2.53;;;16.00;97.50;;;;;;5076239;28;20194;-88
2021/07/05 07:00:56;;;;;;;2.40;2.30;;;16.10;96.60;;;;;;5077199;28;20417;-86
2021/07/05 07:03:22;;;;;;;3.57;2.90;;;16.20;95.60;;;;;;5059856;28;20170;-88
2021/07/05 07:05:49;;;;;;;3.07;2.87;;;16.30;96.40;;;;;;5073880;28;20552;-86
2021/07/05 07:08:14;;;;;;;2.30;2.10;;;15.50;96.00;;;;;;5056662;28;20417;-86
2021/07/05 07:10:40;;;;;;;2.80;2.80;;;15.60;95.10;;;;;;5073959;28;20408;-86
2021/07/05 07:13:06;;;;;;;2.60;2.40;;;16.00;95.20;;;;;;5073435;28;20169;-87
2021/07/05 07:15:38;;;;;;;2.33;2.23;;;16.20;94.70;;;;;;5076533;28;20841;-88
2021/07/05 07:20:32;;;;;;;3.03;2.83;;;16.90;91.80;;;;;;5074313;28;20420;-87
2021/07/05 07:22:58;;;;;;;2.10;2.10;;;17.00;93.10;;;;;;5073392;28;20919;-90
2021/07/05 07:25:24;;;;;;;2.70;2.50;;;17.90;93.80;;;;;;5093271;28;20454;-89
2021/07/05 07:27:49;;;;;;;2.37;2.27;;;17.90;92.30;;;;;;5096530;28;20174;-88
2021/07/05 07:30:19;;;;;;;2.23;2.13;;;16.80;90.70;;;;;;5098034;28;20404;-88
2021/07/05 07:32:46;;;;;;;4.10;2.43;;;16.20;91.10;;;;;;5077481;28;20709;-88
2021/07/05 07:35:19;;;;;;;2.90;2.80;;;17.50;91.00;;;;;;5096126;28;20425;-89
2021/07/05 07:37:48;;;;;;;2.40;2.40;;;17.60;91.80;;;;;;5079610;28;20420;-90
2021/07/05 07:40:38;;;;;;;2.37;2.23;;;17.60;92.40;;;;;;5080363;28;20928;-89
2021/07/05 07:43:00;;;;;;;2.63;2.53;;;17.70;91.80;;;;;;5095770;28;20738;-90
2021/07/05 07:45:51;;;;;;;2.73;2.60;;;17.80;91.60;;;;;;5097770;28;20498;-89
2021/07/05 07:48:17;;;;;;;4.37;2.67;;;20.30;91.90;;;;;;5079759;28;20183;-89
2021/07/05 07:51:07;;;;;;;2.73;2.63;;;17.90;90.80;;;;;;5066229;28;20424;-89
2021/07/05 07:53:33;;;;;;;3.20;3.00;;;18.00;90.70;;;;;;4721070;28;10000093;-85
2021/07/05 07:55:59;;;;;;;3.73;3.43;;;18.20;91.00;;;;;;5043761;28;20190;-87
2021/07/05 07:58:26;;;;;;;3.70;3.50;;;18.40;90.80;;;;;;5056531;28;20187;-89
2021/07/05 08:00:52;;;;;;;2.53;2.43;;;18.50;91.50;;;;;;5036480;28;20176;-89
2021/07/05 08:03:18;;;;;;;3.40;3.30;;;18.70;92.40;;;;;;5055434;28;20408;-88
2021/07/05 08:05:43;;;;;;;3.73;3.60;;;18.60;92.20;;;;;;5048638;28;20469;-90
2021/07/05 08:08:09;;;;;;;3.73;3.63;;;19.10;92.50;;;;;;5054577;28;20511;-89
2021/07/05 08:10:35;;;;;;;2.60;2.50;;;19.60;80.70;;;;;;5055273;28;20178;-89
2021/07/05 08:13:02;;;;;;;3.50;3.20;;;20.90;98.00;;;;;;5073289;28;20417;-89
2021/07/05 08:15:29;;;;;;;4.03;3.70;;;21.00;79.70;;;;;;5055673;28;20479;-88
2021/07/05 08:17:55;;;;;;;3.70;3.37;;;21.60;78.50;;;;;;5072839;28;20428;-88
2021/07/05 08:20:23;;;;;;;5.90;5.47;;;21.80;73.10;;;;;;5074712;28;20413;-88
2021/07/05 08:22:51;;;;;;;3.17;3.00;;;21.60;73.00;;;;;;5055845;28;20305;-89
2021/07/05 08:25:21;;;;;;;3.17;3.07;;;21.60;70.70;;;;;;5056235;28;20459;-89
2021/07/05 08:27:47;;;;;;;3.30;3.10;;;22.30;68.70;;;;;;5057368;28;20452;-89
2021/07/05 08:30:13;;;;;;;3.53;3.27;;;21.30;69.90;;;;;;5057675;28;20440;-89
2021/07/05 08:32:39;;;;;;;4.50;4.10;;;21.20;71.20;;;;;;5076513;28;20408;-89
2021/07/05 08:35:07;;;;;;;6.13;3.40;;;21.00;72.30;;;;;;5075449;28;20427;-89
2021/07/05 08:37:33;;;;;;;3.40;3.30;;;21.10;73.60;;;;;;5076465;28;20212;-88
2021/07/05 08:40:00;;;;;;;3.33;3.20;;;20.70;72.60;;;;;;5079336;28;20409;-87
2021/07/05 08:42:28;;;;;;;3.77;3.67;;;20.60;70.50;;;;;;5078334;28;20420;-87
2021/07/05 08:44:54;;;;;;;3.63;3.40;;;21.00;72.40;;;;;;5081602;28;20481;-89
2021/07/05 08:47:20;;;;;;;3.70;3.40;;;22.40;72.80;;;;;;5080325;28;20448;-89
2021/07/05 08:49:47;;;;;;;5.33;4.27;;;21.30;67.10;;;;;;5063205;28;20175;-89
2021/07/05 08:52:13;;;;;;;5.50;4.30;;;21.20;66.40;;;;;;5064392;28;20473;-88
2021/07/05 08:54:39;;;;;;;4.70;4.40;;;21.60;66.40;;;;;;5063745;28;20405;-89
2021/07/05 08:57:05;;;;;;;4.73;4.37;;;21.60;64.30;;;;;;5063782;28;20211;-88
2021/07/05 08:59:36;;;;;;;4.53;4.10;;;22.20;62.60;;;;;;5062411;28;20923;-88
2021/07/05 09:02:02;;;;;;;3.80;3.60;;;22.30;62.10;;;;;;5047805;28;20203;-89
2021/07/05 09:04:28;;;;;;;4.00;3.80;;;22.20;60.90;;;;;;5058863;28;20445;-87
2021/07/05 09:07:07;;;;;;;4.00;3.80;;;22.10;61.20;;;;;;4710032;28;9999919;-85
2021/07/05 09:09:35;;;;;;;3.60;3.50;;;21.50;62.50;;;;;;5060560;28;20405;-89
2021/07/05 09:12:06;;;;;;;5.33;4.20;;;22.50;62.20;;;;;;5059544;28;20413;-88
2021/07/05 09:14:33;;;;;;;4.33;4.03;;;21.80;61.60;;;;;;5056060;28;20425;-87
2021/07/05 09:16:59;;;;;;;3.70;3.60;;;21.10;62.90;;;;;;5055875;28;20445;-88
2021/07/05 09:19:32;;;;;;;4.20;3.80;;;22.60;65.50;;;;;;5055612;28;20406;-86
2021/07/05 09:22:03;;;;;;;3.93;3.83;;;20.50;63.90;;;;;;5056539;28;20455;-88
2021/07/05 09:24:32;;;;;;;4.23;4.00;;;21.00;67.40;;;;;;5056780;28;20408;-91
2021/07/05 09:27:06;;;;;;;6.10;4.07;;;22.90;70.50;;;;;;5038159;28;20477;-88
2021/07/05 09:29:32;;;;;;;5.40;4.63;;;20.30;68.60;;;;;;5037510;28;20478;-88
2021/07/05 09:32:04;;;;;;;4.50;4.30;;;20.30;71.10;;;;;;5037533;28;20438;-88
2021/07/05 09:34:36;;;;;;;4.00;3.80;;;20.90;69.70;;;;;;5056462;28;20416;-87
2021/07/05 09:37:22;;;;;;;3.87;3.60;;;20.10;70.40;;;;;;5037592;28;20849;-87
2021/07/05 09:40:03;;;;;;;3.90;3.80;;;21.40;70.60;;;;;;5055463;28;20885;-88
2021/07/05 09:42:31;;;;;;;3.73;3.50;;;20.10;72.90;;;;;;5039227;28;20413;-88
2021/07/05 09:44:58;;;;;;;4.33;4.03;;;23.40;78.80;;;;;;5039833;28;20550;-88
2021/07/05 09:47:26;;;;;;;4.57;4.27;;;22.10;77.10;;;;;;5040493;28;20440;-88
2021/07/05 09:49:54;;;;;;;5.03;4.27;;;20.30;68.90;;;;;;5062006;28;20430;-87
2021/07/05 09:52:25;;;;;;;6.23;5.90;;;21.10;75.30;;;;;;5039648;28;20472;-88
2021/07/05 09:54:56;;;;;;;5.10;4.80;;;20.70;67.60;;;;;;5073038;28;20409;-88
2021/07/05 09:57:25;;;;;;;5.00;3.73;;;21.20;65.70;;;;;;5077523;28;20413;-88
2021/07/05 10:00:06;;;;;;;4.73;4.47;;;22.00;66.20;;;;;;5075907;28;20504;-87
2021/07/05 10:02:36;;;;;;;4.53;4.43;;;21.10;64.30;;;;;;5057745;28;20424;-88
2021/07/05 10:05:15;;;;;;;4.00;3.80;;;21.60;59.90;;;;;;5075843;28;20465;-87
2021/07/05 10:07:41;;;;;;;4.70;4.40;;;21.60;58.90;;;;;;5058837;28;20412;-87
2021/07/05 10:10:16;;;;;;;4.40;4.10;;;22.60;63.30;;;;;;5076196;28;20401;-88
2021/07/05 10:12:53;;;;;;;4.53;4.23;;;21.30;60.10;;;;;;5075479;28;20409;-87
2021/07/05 10:15:20;;;;;;;5.10;4.80;;;22.20;64.10;;;;;;5058731;28;20819;-86
2021/07/05 10:17:48;;;;;;;5.30;4.87;;;20.80;64.80;;;;;;5072072;28;20430;-87
2021/07/05 10:20:16;;;;;;;4.80;4.60;;;21.90;67.70;;;;;;5047628;28;20422;-87
2021/07/05 10:22:45;;;;;;;4.40;4.10;;;20.20;65.00;;;;;;4693664;28;10000417;-87
2021/07/05 10:25:12;;;;;;;5.27;4.80;;;22.00;67.70;;;;;;5046284;28;20202;-86
2021/07/05 10:27:38;;;;;;;4.60;4.50;;;20.90;66.70;;;;;;5054833;28;20446;-88
2021/07/05 10:30:06;;;;;;;4.90;4.50;;;20.90;66.90;;;;;;5054399;28;20488;-86
2021/07/05 10:32:32;;;;;;;4.80;4.60;;;21.00;66.00;;;;;;5052711;28;20493;-88
2021/07/05 10:34:58;;;;;;;4.33;4.23;;;21.20;64.60;;;;;;5045326;28;20555;-84
2021/07/05 10:37:51;;;;;;;4.10;3.90;;;21.60;62.80;;;;;;5074596;28;20186;-88
2021/07/05 10:40:18;;;;;;;3.27;3.07;;;22.80;57.40;;;;;;5056055;28;20525;-89
2021/07/05 10:42:53;;;;;;;3.27;3.00;;;25.40;57.40;;;;;;5073511;28;20415;-88
2021/07/05 10:45:19;;;;;;;3.37;3.27;;;24.60;54.60;;;;;;5075301;28;20455;-88
2021/07/05 10:47:55;;;;;;;4.17;3.50;;;25.00;54.50;;;;;;5058577;28;20424;-88
2021/07/05 10:50:41;;;;;;;3.23;3.13;;;24.90;52.20;;;;;;5075364;28;20200;-89
2021/07/05 10:53:08;;;;;;;3.53;3.23;;;24.50;52.10;;;;;;5057315;28;20413;-87
2021/07/05 10:55:53;;;;;;;3.50;3.30;;;26.20;52.90;;;;;;5058375;28;20405;-87
2021/07/05 10:58:26;;;;;;;2.63;2.53;;;25.00;50.10;;;;;;5074844;28;20440;-89
2021/07/05 11:00:57;;;;;;;3.03;2.83;;;26.60;51.20;;;;;;5074760;28;20406;-88
2021/07/05 11:03:38;;;;;;;3.27;3.07;;;25.80;49.70;;;;;;5057009;28;21014;-87
2021/07/05 11:06:26;;;;;;;2.73;2.63;;;25.70;47.70;;;;;;5056856;28;20819;-87
2021/07/05 11:08:53;;;;;;;2.90;2.80;;;25.60;49.40;;;;;;5074369;28;20508;-87
2021/07/05 11:11:31;;;;;;;3.57;3.47;;;25.20;49.10;;;;;;5074897;28;20741;-88
2021/07/05 11:14:21;;;;;;;4.17;4.00;;;25.20;48.50;;;;;;5056717;28;20626;-87
2021/07/05 11:17:01;;;;;;;3.40;3.30;;;24.80;47.80;;;;;;5057903;28;20469;-88
2021/07/05 11:19:42;;;;;;;3.40;3.20;;;24.20;47.90;;;;;;5070654;28;21018;-89
2021/07/05 11:22:27;;;;;;;2.50;2.37;;;24.40;48.70;;;;;;5087842;28;20516;-87
2021/07/05 11:25:16;;;;;;;3.30;3.10;;;26.20;49.20;;;;;;5078431;28;20413;-88
2021/07/05 11:27:52;;;;;;;3.70;3.50;;;25.20;46.50;;;;;;5076753;28;20420;-88
2021/07/05 11:30:19;;;;;;;3.47;3.37;;;26.00;48.20;;;;;;5076605;28;20401;-89
2021/07/05 11:33:03;;;;;;;3.03;2.93;;;25.00;47.70;;;;;;5058968;28;20421;-87
2021/07/05 11:35:28;;;;;;;3.20;2.63;;;25.00;46.60;;;;;;5078156;28;20442;-87
2021/07/05 11:37:57;;;;;;;3.07;2.97;;;25.60;47.40;;;;;;5056472;28;20931;-91
2021/07/05 11:40:47;;;;;;;2.57;2.47;;;26.60;46.90;;;;;;5059300;28;20517;-89
2021/07/05 11:43:15;;;;;;;3.13;2.83;;;25.70;44.90;;;;;;5075389;28;20941;-88
2021/07/05 11:45:49;;;;;;;2.90;2.70;;;28.60;46.10;;;;;;5075665;28;20474;-89
2021/07/05 11:48:40;;;;;;;3.20;3.00;;;27.00;64.40;;;;;;5076628;28;20532;-89
2021/07/05 11:51:32;;;;;;;3.20;3.10;;;27.80;62.00;;;;;;5078372;28;20467;-89
2021/07/05 11:54:03;;;;;;;5.63;5.40;;;28.40;56.10;;;;;;5057637;28;20787;-88
2021/07/05 11:56:29;;;;;;;3.37;3.10;;;27.30;55.80;;;;;;5076045;28;20439;-89
2021/07/05 11:58:56;;;;;;;3.63;3.30;;;27.10;54.50;;;;;;5075209;28;20796;-88
2021/07/05 12:01:21;;;;;;;7.10;6.60;;;26.60;54.00;;;;;;5057075;28;20174;-88
2021/07/05 12:03:52;;;;;;;3.27;3.00;;;26.60;52.20;;;;;;5058259;28;20466;-89
2021/07/05 12:06:20;;;;;;;4.00;3.70;;;26.30;46.80;;;;;;5053127;28;20676;-89
2021/07/05 12:09:05;;;;;;;3.57;3.37;;;28.10;54.90;;;;;;5075490;28;20413;-89
2021/07/05 12:11:35;;;;;;;5.30;3.43;;;25.30;46.80;;;;;;5073817;28;20409;-89
2021/07/05 12:14:11;;;;;;;3.50;3.30;;;26.90;48.50;;;;;;5035950;28;20449;-88
2021/07/05 12:16:42;;;;;;;3.67;3.37;;;26.00;46.30;;;;;;5054307;28;20461;-88
2021/07/05 12:19:10;;;;;;;4.87;4.57;;;24.70;48.90;;;;;;5053813;28;20444;-87
2021/07/05 12:21:44;;;;;;;4.03;3.80;;;24.30;54.30;;;;;;5055011;28;20410;-87
2021/07/05 12:24:14;;;;;;;4.63;4.50;;;24.40;56.00;;;;;;5054325;28;20427;-88
2021/07/05 12:26:46;;;;;;;4.57;4.27;;;23.50;54.90;;;;;;5053907;28;20511;-88
2021/07/05 12:29:29;;;;;;;5.90;3.90;;;25.30;56.70;;;;;;5054373;28;20464;-88
2021/07/05 12:32:15;;;;;;;5.13;5.00;;;24.60;55.00;;;;;;5036719;28;20429;-89
2021/07/05 12:34:56;;;;;;;4.47;4.23;;;25.00;54.00;;;;;;5039565;28;20513;-88
2021/07/05 12:37:25;;;;;;;4.30;4.10;;;24.90;53.80;;;;;;5054927;28;20414;-89
2021/07/05 12:39:54;;;;;;;5.03;3.93;;;25.20;54.00;;;;;;5055231;28;20406;-89
2021/07/05 12:42:30;;;;;;;3.93;3.83;;;24.90;54.40;;;;;;5036716;28;20422;-89
2021/07/05 12:44:57;;;;;;;5.40;5.00;;;26.10;54.30;;;;;;5055600;28;20409;-88
2021/07/05 12:47:23;;;;;;;3.63;3.60;;;24.30;53.20;;;;;;5057928;28;20486;-86
2021/07/05 12:49:51;;;;;;;4.20;3.70;;;23.90;49.20;;;;;;5039588;28;20956;-90
2021/07/05 12:52:16;;;;;;;4.10;3.90;;;24.20;49.00;;;;;;5040721;28;20430;-88
2021/07/05 12:54:42;;;;;;;4.77;4.30;;;23.70;51.40;;;;;;5063403;28;20417;-88
2021/07/05 12:57:11;;;;;;;3.97;3.87;;;24.50;52.70;;;;;;5069373;28;20175;-89
2021/07/05 12:59:39;;;;;;;3.43;3.30;;;23.30;50.80;;;;;;5038509;28;20310;-89